Time;durP1;ratioP1;P1;durP2;ratioP2;P2;SDS_P1;SDS_P2;PMS_P1;PMS_P2;Temp;Humidity;BMP_temperature;BMP_pressure;BME280_temperature;BME280_humidity;BME280_pressure;Samples;Min_cycle;Max_cycle;Signal;HPM_P1;HPM_P2
2021/08/05 00:00:04;;;;;;;;;;;16.50;99.90;;;;;;5069147;28;20061;-76
2021/08/05 00:02:29;;;;;;;;;;;16.50;99.90;;;;;;5066651;28;19912;-77
2021/08/05 00:04:55;;;;;;;;;;;16.40;99.90;;;;;;5071485;28;19922;-76
2021/08/05 00:07:20;;;;;;;;;;;16.30;99.90;;;;;;5070158;28;19939;-76
2021/08/05 00:09:46;;;;;;;;;;;16.20;99.90;;;;;;5070824;28;19939;-76
2021/08/05 00:12:12;;;;;;;;;;;16.10;99.90;;;;;;5074117;28;19909;-76
2021/08/05 00:14:38;;;;;;;;;;;16.20;99.90;;;;;;5072930;28;20216;-75
2021/08/05 00:17:04;;;;;;;;;;;16.20;99.90;;;;;;5067769;28;19919;-75
2021/08/05 00:19:29;;;;;;;;;;;16.10;99.90;;;;;;5064352;28;19921;-76
2021/08/05 00:21:55;;;;;;;;;;;16.10;99.90;;;;;;5073814;28;20278;-76
2021/08/05 00:24:21;;;;;;;;;;;16.00;99.90;;;;;;5077689;28;19916;-80
2021/08/05 00:26:46;;;;;;;;;;;15.90;99.90;;;;;;5076265;28;19952;-76
2021/08/05 00:29:12;;;;;;;;;;;15.90;99.90;;;;;;5076363;28;19961;-76
2021/08/05 00:31:37;;;;;;;;;;;15.80;99.90;;;;;;5069114;28;20349;-75
2021/08/05 00:34:03;;;;;;;;;;;15.80;99.90;;;;;;5071096;28;19913;-76
2021/08/05 00:36:28;;;;;;;;;;;15.80;99.90;;;;;;5077852;28;19909;-76
2021/08/05 00:38:54;;;;;;;;;;;15.80;99.90;;;;;;5066565;28;20244;-76
2021/08/05 00:41:19;;;;;;;;;;;15.80;99.90;;;;;;5076920;28;19912;-75
2021/08/05 00:43:45;;;;;;;;;;;15.80;99.90;;;;;;5073025;28;19913;-75
2021/08/05 00:46:11;;;;;;;;;;;15.70;99.90;;;;;;5076377;28;19913;-76
2021/08/05 00:48:36;;;;;;;;;;;15.70;99.90;;;;;;5071524;28;19952;-76
2021/08/05 00:51:02;;;;;;;;;;;15.80;99.90;;;;;;5066901;28;19974;-78
2021/08/05 00:53:27;;;;;;;;;;;15.80;99.90;;;;;;5064116;28;19913;-75
2021/08/05 00:55:53;;;;;;;;;;;15.80;99.90;;;;;;5074660;28;19921;-76
2021/08/05 00:58:19;;;;;;;;;;;15.70;99.90;;;;;;5075830;28;19913;-76
2021/08/05 01:00:48;;;;;;;;;;;15.80;99.90;;;;;;5069369;28;19916;-79
2021/08/05 01:03:22;;;;;;;;;;;15.70;99.90;;;;;;5067309;28;19948;-77
2021/08/05 01:05:52;;;;;;;;;;;15.70;99.90;;;;;;5071853;28;19912;-78
2021/08/05 01:08:22;;;;;;;;;;;15.60;99.90;;;;;;5064933;28;20307;-76
2021/08/05 01:10:54;;;;;;;;;;;15.60;99.90;;;;;;5070570;28;19917;-76
2021/08/05 01:13:27;;;;;;;;;;;15.60;99.90;;;;;;5072997;28;19912;-75
2021/08/05 01:15:53;;;;;;;;;;;15.50;99.90;;;;;;5061715;28;19936;-77
2021/08/05 01:18:26;;;;;;;;;;;15.50;99.90;;;;;;5073707;28;19916;-76
2021/08/05 01:20:52;;;;;;;;;;;15.50;99.90;;;;;;5074663;28;19962;-76
2021/08/05 01:23:37;;;;;;;;;;;15.50;99.90;;;;;;5061867;28;19916;-76
2021/08/05 01:26:09;;;;;;;;;;;15.50;99.90;;;;;;5064483;28;19917;-77
2021/08/05 01:28:35;;;;;;;;;;;15.50;99.90;;;;;;5074635;28;19908;-76
2021/08/05 01:31:02;;;;;;;;;;;15.40;99.90;;;;;;5059383;28;19917;-75
2021/08/05 01:33:29;;;;;;;;;;;15.40;99.90;;;;;;5064267;28;19916;-76
2021/08/05 01:35:55;;;;;;;;;;;15.30;99.90;;;;;;5076463;28;19913;-75
2021/08/05 01:38:21;;;;;;;;;;;15.40;99.90;;;;;;5071498;28;19927;-80
2021/08/05 01:40:48;;;;;;;;;;;15.40;99.90;;;;;;5074988;28;19916;-76
2021/08/05 01:43:14;;;;;;;;;;;15.40;99.90;;;;;;5076757;28;20019;-75
2021/08/05 01:45:40;;;;;;;;;;;15.30;99.90;;;;;;5075819;28;19909;-75
2021/08/05 01:48:07;;;;;;;;;;;15.30;99.90;;;;;;5075689;28;20003;-84
2021/08/05 01:50:33;;;;;;;;;;;15.30;99.90;;;;;;5075148;28;19951;-75
2021/08/05 01:52:59;;;;;;;;;;;15.30;99.90;;;;;;5064174;28;20318;-77
2021/08/05 01:55:24;;;;;;;;;;;15.20;99.90;;;;;;5073079;28;19916;-75
2021/08/05 01:57:50;;;;;;;;;;;15.20;99.90;;;;;;5071967;28;19917;-75
2021/08/05 02:00:16;;;;;;;;;;;15.20;99.90;;;;;;5074679;28;19912;-75
2021/08/05 02:02:41;;;;;;;;;;;15.10;99.90;;;;;;5075489;28;19993;-75
2021/08/05 02:05:09;;;;;;;;;;;14.90;99.90;;;;;;5071861;28;19916;-76
2021/08/05 02:07:55;;;;;;;;;;;14.70;99.90;;;;;;5069903;28;20292;-83
2021/08/05 02:10:23;;;;;;;;;;;14.70;99.90;;;;;;5071428;28;19913;-81
2021/08/05 02:13:10;;;;;;;;;;;14.60;99.90;;;;;;5074658;28;19928;-75
2021/08/05 02:15:37;;;;;;;;;;;14.70;99.90;;;;;;5067396;28;19913;-76
2021/08/05 02:18:04;;;;;;;;;;;14.60;99.90;;;;;;5071386;28;20296;-76
2021/08/05 02:20:30;;;;;;;;;;;14.50;99.90;;;;;;5067076;28;19919;-75
2021/08/05 02:22:56;;;;;;;;;;;14.40;99.90;;;;;;5076101;28;20290;-79
2021/08/05 02:25:21;;;;;;;;;;;14.40;99.90;;;;;;5074280;28;19913;-75
2021/08/05 02:27:47;;;;;;;;;;;14.50;99.90;;;;;;5073493;28;19912;-76
2021/08/05 02:30:13;;;;;;;;;;;14.50;99.90;;;;;;5069537;28;19913;-75
2021/08/05 02:32:39;;;;;;;;;;;14.40;99.90;;;;;;5065589;28;20665;-83
2021/08/05 02:35:07;;;;;;;;;;;14.50;99.90;;;;;;5063934;28;19917;-76
2021/08/05 02:37:33;;;;;;;;;;;14.50;99.90;;;;;;5060372;28;19928;-77
2021/08/05 02:39:58;;;;;;;;;;;14.50;99.90;;;;;;5069010;28;19924;-75
2021/08/05 02:42:24;;;;;;;;;;;14.50;99.90;;;;;;5073562;28;19908;-83
2021/08/05 02:44:51;;;;;;;;;;;14.50;99.90;;;;;;5074295;28;19920;-76
2021/08/05 02:47:17;;;;;;;;;;;14.40;99.90;;;;;;5072904;28;19916;-75
2021/08/05 02:49:43;;;;;;;;;;;14.50;99.90;;;;;;5066605;28;20292;-76
2021/08/05 02:52:08;;;;;;;;;;;14.40;99.90;;;;;;5072643;28;19930;-76
2021/08/05 02:54:34;;;;;;;;;;;14.30;99.90;;;;;;5074531;28;19913;-77
2021/08/05 02:57:00;;;;;;;;;;;14.30;99.90;;;;;;5066540;28;19959;-75
2021/08/05 02:59:26;;;;;;;;;;;14.20;99.90;;;;;;5073905;28;20219;-76
2021/08/05 03:01:52;;;;;;;;;;;14.20;99.90;;;;;;5070315;28;19916;-83
2021/08/05 03:04:18;;;;;;;;;;;14.20;99.90;;;;;;5067119;28;19917;-77
2021/08/05 03:06:44;;;;;;;;;;;14.20;99.90;;;;;;5068906;28;19912;-76
2021/08/05 03:09:10;;;;;;;;;;;14.20;99.90;;;;;;5071086;28;19912;-77
2021/08/05 03:11:36;;;;;;;;;;;14.20;99.90;;;;;;5068483;28;19913;-77
2021/08/05 03:14:01;;;;;;;;;;;14.20;99.90;;;;;;5074001;28;19913;-76
2021/08/05 03:16:27;;;;;;;;;;;14.10;99.90;;;;;;5068635;28;19932;-76
2021/08/05 03:18:52;;;;;;;;;;;14.10;99.90;;;;;;5063570;28;19917;-76
2021/08/05 03:21:18;;;;;;;;;;;14.10;99.90;;;;;;5073128;28;19966;-76
2021/08/05 03:23:44;;;;;;;;;;;14.10;99.90;;;;;;5073565;28;19966;-75
2021/08/05 03:26:09;;;;;;;;;;;14.10;99.90;;;;;;5072075;28;19916;-77
2021/08/05 03:28:35;;;;;;;;;;;14.10;99.90;;;;;;5072773;28;19920;-83
2021/08/05 03:31:00;;;;;;;;;;;14.10;99.90;;;;;;5068178;28;20007;-85
2021/08/05 03:33:26;;;;;;;;;;;14.10;99.90;;;;;;5062749;28;19913;-76
2021/08/05 03:35:51;;;;;;;;;;;14.10;99.90;;;;;;5070173;28;19931;-79
2021/08/05 03:38:17;;;;;;;;;;;14.00;99.90;;;;;;5070344;28;19928;-77
2021/08/05 03:40:43;;;;;;;;;;;14.00;99.90;;;;;;5069729;28;19952;-76
2021/08/05 03:43:08;;;;;;;;;;;14.00;99.90;;;;;;5064709;28;19954;-76
2021/08/05 03:45:34;;;;;;;;;;;13.90;99.90;;;;;;5070053;28;20006;-76
2021/08/05 03:47:59;;;;;;;;;;;13.80;99.90;;;;;;5067139;28;19940;-79
2021/08/05 03:50:25;;;;;;;;;;;13.80;99.90;;;;;;5069601;28;20243;-84
2021/08/05 03:52:50;;;;;;;;;;;13.80;99.90;;;;;;5071215;28;19977;-76
2021/08/05 03:55:16;;;;;;;;;;;13.70;99.90;;;;;;5092459;28;19912;-77
2021/08/05 03:57:42;;;;;;;;;;;13.70;99.90;;;;;;5077116;28;19913;-76
2021/08/05 04:00:09;;;;;;;;;;;13.70;99.90;;;;;;5063939;28;19923;-75
2021/08/05 04:02:35;;;;;;;;;;;13.70;99.90;;;;;;5078740;28;20311;-77
2021/08/05 04:05:00;;;;;;;;;;;13.70;99.90;;;;;;5078011;28;19919;-77
2021/08/05 04:07:26;;;;;;;;;;;13.80;99.90;;;;;;5071036;28;20280;-78
2021/08/05 04:09:51;;;;;;;;;;;13.80;99.90;;;;;;5073721;28;19921;-79
2021/08/05 04:12:17;;;;;;;;;;;13.80;99.90;;;;;;5076709;28;19959;-79
2021/08/05 04:14:42;;;;;;;;;;;13.90;99.90;;;;;;5076510;28;19962;-77
2021/08/05 04:17:08;;;;;;;;;;;13.90;99.90;;;;;;5067443;28;19917;-77
2021/08/05 04:19:33;;;;;;;;;;;13.90;99.90;;;;;;5073615;28;20390;-75
2021/08/05 04:21:59;;;;;;;;;;;13.80;99.90;;;;;;5076666;28;20334;-77
2021/08/05 04:24:25;;;;;;;;;;;13.80;99.90;;;;;;5076147;28;19909;-84
2021/08/05 04:26:50;;;;;;;;;;;13.80;99.90;;;;;;5064762;28;19952;-78
2021/08/05 04:29:16;;;;;;;;;;;13.90;99.90;;;;;;5077026;28;19916;-76
2021/08/05 04:31:41;;;;;;;;;;;13.80;99.90;;;;;;5063771;28;19913;-78
2021/08/05 04:34:07;;;;;;;;;;;13.80;99.90;;;;;;5077818;28;19920;-75
2021/08/05 04:36:32;;;;;;;;;;;13.90;99.90;;;;;;5075556;28;19962;-76
2021/08/05 04:38:58;;;;;;;;;;;13.90;99.90;;;;;;5072858;28;19924;-77
2021/08/05 04:41:23;;;;;;;;;;;14.00;99.90;;;;;;5077818;28;20220;-77
2021/08/05 04:43:51;;;;;;;;;;;14.00;99.90;;;;;;5076132;28;19912;-76
2021/08/05 04:46:17;;;;;;;;;;;14.10;99.90;;;;;;5071527;28;20327;-78
2021/08/05 04:48:42;;;;;;;;;;;14.10;99.90;;;;;;5075763;28;19920;-82
2021/08/05 04:51:08;;;;;;;;;;;14.10;99.90;;;;;;5077918;28;19928;-77
2021/08/05 04:53:33;;;;;;;;;;;14.10;99.90;;;;;;5077510;28;19916;-78
2021/08/05 04:55:59;;;;;;;;;;;14.10;99.90;;;;;;5065778;28;20015;-77
2021/08/05 04:58:24;;;;;;;;;;;14.20;99.90;;;;;;5075765;28;19919;-77
2021/08/05 05:00:50;;;;;;;;;;;14.20;99.90;;;;;;5071793;28;20303;-81
2021/08/05 05:03:16;;;;;;;;;;;14.20;99.90;;;;;;5069176;28;19923;-76
2021/08/05 05:05:41;;;;;;;;;;;14.30;99.90;;;;;;5074739;28;19913;-87
2021/08/05 05:08:18;;;;;;;;;;;14.40;99.90;;;;;;5074203;28;19994;-77
2021/08/05 05:10:44;;;;;;;;;;;14.40;99.90;;;;;;5077000;28;19909;-76
2021/08/05 05:13:09;;;;;;;;;;;14.40;99.90;;;;;;5062319;28;19920;-76
2021/08/05 05:15:35;;;;;;;;;;;14.40;99.90;;;;;;5069623;28;20213;-76
2021/08/05 05:18:01;;;;;;;;;;;14.60;99.90;;;;;;5068744;28;19935;-84
2021/08/05 05:20:26;;;;;;;;;;;14.60;99.90;;;;;;5065327;28;20222;-76
2021/08/05 05:22:52;;;;;;;;;;;14.60;99.90;;;;;;5068247;28;19921;-77
2021/08/05 05:25:17;;;;;;;;;;;14.60;99.90;;;;;;5066941;28;19916;-77
2021/08/05 05:27:43;;;;;;;;;;;14.70;99.90;;;;;;5062953;28;20345;-77
2021/08/05 05:30:09;;;;;;;;;;;14.70;99.90;;;;;;5065694;28;20049;-77
2021/08/05 05:32:35;;;;;;;;;;;14.70;99.90;;;;;;5066185;28;19958;-77
2021/08/05 05:35:02;;;;;;;;;;;14.80;99.90;;;;;;5066059;28;19920;-76
2021/08/05 05:37:28;;;;;;;;;;;14.80;99.90;;;;;;5067269;28;20012;-84
2021/08/05 05:39:54;;;;;;;;;;;14.80;99.90;;;;;;5066160;28;20011;-77
2021/08/05 05:42:20;;;;;;;;;;;14.90;99.90;;;;;;5066899;28;19913;-76
2021/08/05 05:44:46;;;;;;;;;;;14.90;99.90;;;;;;5067312;28;19916;-76
2021/08/05 05:47:12;;;;;;;;;;;14.90;99.90;;;;;;5067914;28;19920;-83
2021/08/05 05:49:37;;;;;;;;;;;14.80;99.90;;;;;;5066867;28;19916;-77
2021/08/05 05:52:03;;;;;;;;;;;14.80;99.90;;;;;;5067406;28;19912;-78
2021/08/05 05:54:29;;;;;;;;;;;14.90;99.90;;;;;;5064489;28;20007;-77
2021/08/05 05:56:54;;;;;;;;;;;14.90;99.90;;;;;;5066067;28;19921;-79
2021/08/05 05:59:20;;;;;;;;;;;15.00;99.90;;;;;;5066888;28;20011;-76
2021/08/05 06:01:46;;;;;;;;;;;15.10;99.90;;;;;;5064673;28;19917;-76
2021/08/05 06:04:12;;;;;;;;;;;15.20;99.90;;;;;;5069143;28;19913;-76
2021/08/05 06:06:37;;;;;;;;;;;15.20;99.90;;;;;;5067439;28;19970;-76
2021/08/05 06:09:03;;;;;;;;;;;15.30;99.90;;;;;;5066472;28;19917;-84
2021/08/05 06:11:29;;;;;;;;;;;15.30;99.90;;;;;;5067408;28;19920;-77
2021/08/05 06:13:55;;;;;;;;;;;15.30;99.90;;;;;;5067705;28;19944;-77
2021/08/05 06:16:20;;;;;;;;;;;15.40;99.90;;;;;;5070385;28;19913;-78
2021/08/05 06:18:46;;;;;;;;;;;15.40;99.90;;;;;;5073924;28;20039;-77
2021/08/05 06:21:11;;;;;;;;;;;15.50;99.90;;;;;;5073120;28;20719;-79
2021/08/05 06:23:37;;;;;;;;;;;15.50;99.90;;;;;;5074334;28;19951;-78
2021/08/05 06:26:03;;;;;;;;;;;15.60;99.90;;;;;;5073294;28;19916;-76
2021/08/05 06:28:30;;;;;;;;;;;15.60;99.90;;;;;;5071029;28;19912;-76
2021/08/05 06:30:56;;;;;;;;;;;15.60;99.90;;;;;;5070863;28;19919;-82
2021/08/05 06:33:22;;;;;;;;;;;15.70;99.90;;;;;;5070957;28;19932;-78
2021/08/05 06:35:47;;;;;;;;;;;15.70;99.90;;;;;;5069505;28;19916;-82
2021/08/05 06:38:13;;;;;;;;;;;15.70;99.90;;;;;;5066269;28;20022;-78
2021/08/05 06:40:38;;;;;;;;;;;15.80;99.90;;;;;;5063864;28;19921;-77
2021/08/05 06:43:04;;;;;;;;;;;15.80;99.90;;;;;;5066948;28;19924;-79
2021/08/05 06:45:30;;;;;;;;;;;15.90;99.90;;;;;;5063600;28;20258;-76
2021/08/05 06:47:55;;;;;;;;;;;15.90;99.90;;;;;;5063517;28;19995;-78
2021/08/05 06:50:21;;;;;;;;;;;16.00;99.90;;;;;;5064685;28;19912;-77
2021/08/05 06:52:51;;;;;;;;;;;16.10;99.90;;;;;;5066817;28;19913;-78
2021/08/05 06:55:16;;;;;;;;;;;16.20;99.90;;;;;;5067180;28;20199;-78
2021/08/05 06:57:42;;;;;;;;;;;16.30;99.90;;;;;;5054970;28;19999;-78
2021/08/05 07:00:08;;;;;;;;;;;16.40;99.90;;;;;;5069541;28;20006;-76
2021/08/05 07:02:33;;;;;;;;;;;16.50;99.90;;;;;;5065189;28;19960;-85
2021/08/05 07:05:02;;;;;;;;;;;16.50;99.90;;;;;;5073523;28;20031;-87
2021/08/05 07:07:28;;;;;;;;;;;16.60;99.90;;;;;;5063655;28;19923;-77
2021/08/05 07:09:54;;;;;;;;;;;16.60;99.90;;;;;;5065828;28;19913;-77
2021/08/05 07:12:20;;;;;;;;;;;16.80;99.90;;;;;;5070965;28;19916;-84
2021/08/05 07:14:45;;;;;;;;;;;16.80;99.90;;;;;;5066273;28;19924;-76
2021/08/05 07:17:11;;;;;;;;;;;16.90;99.90;;;;;;5071690;28;20007;-77
2021/08/05 07:19:36;;;;;;;;;;;17.00;99.90;;;;;;5070596;28;19928;-78
2021/08/05 07:22:02;;;;;;;;;;;17.10;99.90;;;;;;5074017;28;19912;-77
2021/08/05 07:24:28;;;;;;;;;;;17.20;99.90;;;;;;5073519;28;19913;-88
2021/08/05 07:26:54;;;;;;;;;;;17.30;99.90;;;;;;5072901;28;20319;-77
2021/08/05 07:29:19;;;;;;;;;;;17.40;99.90;;;;;;5072866;28;19957;-77
2021/08/05 07:31:46;;;;;;;;;;;17.50;99.90;;;;;;5059699;28;19917;-81
2021/08/05 07:34:12;;;;;;;;;;;17.60;99.90;;;;;;5069343;28;20013;-88
2021/08/05 07:36:37;;;;;;;;;;;17.60;99.90;;;;;;5081396;28;20327;-76
2021/08/05 07:39:05;;;;;;;;;;;17.70;99.90;;;;;;5074049;28;19920;-77
2021/08/05 07:41:31;;;;;;;;;;;17.80;99.90;;;;;;5072352;28;20307;-77
2021/08/05 07:43:57;;;;;;;;;;;17.90;99.90;;;;;;5074375;28;19913;-78
2021/08/05 07:46:22;;;;;;;;;;;18.00;99.90;;;;;;5063804;28;19923;-78
2021/08/05 07:48:48;;;;;;;;;;;18.20;99.90;;;;;;5064776;28;20020;-76
2021/08/05 07:51:14;;;;;;;;;;;18.30;99.90;;;;;;5055941;28;19908;-77
2021/08/05 07:53:39;;;;;;;;;;;18.60;99.90;;;;;;5058068;28;19928;-86
2021/08/05 07:56:05;;;;;;;;;;;18.80;99.90;;;;;;5073722;28;19912;-76
2021/08/05 07:58:30;;;;;;;;;;;19.00;99.90;;;;;;5063938;28;20275;-77
2021/08/05 08:00:56;;;;;;;;;;;19.10;99.90;;;;;;5069268;28;19916;-77
2021/08/05 08:03:22;;;;;;;;;;;19.20;99.90;;;;;;5071008;28;19966;-77
2021/08/05 08:05:47;;;;;;;;;;;19.40;99.90;;;;;;5072822;28;19924;-78
2021/08/05 08:08:16;;;;;;;;;;;19.60;99.90;;;;;;5070147;28;19954;-78
2021/08/05 08:10:42;;;;;;;;;;;19.70;99.90;;;;;;5074037;28;19912;-77
2021/08/05 08:13:07;;;;;;;;;;;20.00;99.90;;;;;;5069467;28;19923;-86
2021/08/05 08:15:33;;;;;;;;;;;20.10;99.90;;;;;;5071451;28;19919;-76
2021/08/05 08:17:58;;;;;;;;;;;20.30;99.90;;;;;;5071815;28;19916;-77
2021/08/05 08:20:24;;;;;;;;;;;20.40;99.90;;;;;;5060865;28;20240;-77
2021/08/05 08:22:51;;;;;;;;;;;20.60;99.90;;;;;;5068024;28;20042;-77
2021/08/05 08:25:17;;;;;;;;;;;20.80;99.90;;;;;;5061399;28;19908;-78
2021/08/05 08:27:43;;;;;;;;;;;20.90;99.90;;;;;;5071500;28;19917;-76
2021/08/05 08:30:10;;;;;;;;;;;21.10;99.90;;;;;;5061534;28;19927;-77
2021/08/05 08:32:36;;;;;;;;;;;21.30;99.90;;;;;;5068469;28;19924;-77
2021/08/05 08:35:02;;;;;;;;;;;21.40;99.90;;;;;;5072246;28;19912;-77
2021/08/05 08:37:28;;;;;;;;;;;21.50;99.90;;;;;;5070645;28;19927;-78
2021/08/05 08:39:53;;;;;;;;;;;21.40;99.90;;;;;;5075341;28;19916;-77
2021/08/05 08:42:19;;;;;;;;;;;21.40;99.90;;;;;;5075549;28;19915;-81
2021/08/05 08:44:45;;;;;;;;;;;21.50;99.90;;;;;;5076409;28;19909;-77
2021/08/05 08:47:11;;;;;;;;;;;21.60;99.90;;;;;;5062705;28;19908;-78
2021/08/05 08:49:36;;;;;;;;;;;21.80;99.90;;;;;;5076598;28;19962;-77
2021/08/05 08:52:03;;;;;;;;;;;21.90;99.90;;;;;;5076559;28;19912;-77
2021/08/05 08:54:29;;;;;;;;;;;21.70;99.90;;;;;;5070116;28;19913;-78
2021/08/05 08:56:56;;;;;;;;;;;21.60;99.90;;;;;;5072892;28;20203;-78
2021/08/05 08:59:22;;;;;;;;;;;21.80;99.90;;;;;;5077086;28;19962;-78
2021/08/05 09:01:48;;;;;;;;;;;21.90;99.90;;;;;;5074984;28;19912;-79
2021/08/05 09:04:14;;;;;;;;;;;21.70;99.90;;;;;;5066278;28;19927;-80
2021/08/05 09:06:40;;;;;;;;;;;21.70;99.90;;;;;;5067035;28;19967;-78
2021/08/05 09:09:07;;;;;;;;;;;21.60;99.90;;;;;;5063269;28;19920;-80
2021/08/05 09:11:32;;;;;;;;;;;21.50;99.90;;;;;;5076493;28;20332;-78
2021/08/05 09:13:58;;;;;;;;;;;21.40;99.90;;;;;;5076716;28;19929;-79
2021/08/05 09:16:31;;;;;;;;;;;21.30;99.90;;;;;;5070325;28;19965;-79
2021/08/05 09:19:07;;;;;;;;;;;21.20;99.90;;;;;;5077040;28;19942;-77
2021/08/05 09:21:33;;;;;;;;;;;21.30;99.90;;;;;;5071984;28;19916;-78
2021/08/05 09:24:07;;;;;;;;;;;21.30;99.90;;;;;;5077000;28;19919;-78
2021/08/05 09:26:42;;;;;;;;;;;21.30;99.90;;;;;;5075577;28;19916;-78
2021/08/05 09:29:07;;;;;;;;;;;21.30;99.90;;;;;;5075041;28;19920;-80
2021/08/05 09:31:34;;;;;;;;;;;21.40;99.90;;;;;;5071150;28;19921;-78
2021/08/05 09:34:00;;;;;;;;;;;21.70;99.90;;;;;;5074351;28;19912;-78
2021/08/05 09:36:27;;;;;;;;;;;21.90;99.90;;;;;;5073769;28;19917;-79
2021/08/05 09:38:53;;;;;;;;;;;22.20;99.90;;;;;;5076819;28;19920;-83
2021/08/05 09:41:19;;;;;;;;;;;22.60;99.90;;;;;;5065347;28;19916;-81
2021/08/05 09:43:45;;;;;;;;;;;22.80;99.90;;;;;;5068317;28;19916;-78
2021/08/05 09:46:13;;;;;;;;;;;22.70;99.90;;;;;;5074988;28;19921;-79
2021/08/05 09:48:42;;;;;;;;;;;22.60;99.90;;;;;;5067269;28;19912;-78
2021/08/05 09:51:08;;;;;;;;;;;22.50;99.90;;;;;;5064828;28;19923;-78
2021/08/05 09:53:33;;;;;;;;;;;22.30;99.90;;;;;;5082134;28;19909;-78
2021/08/05 09:56:09;;;;;;;;;;;22.10;99.90;;;;;;5075581;28;19920;-86
2021/08/05 09:58:34;;;;;;;;;;;22.00;99.90;;;;;;5070444;28;19928;-84
2021/08/05 10:01:05;;;;;;;;;;;22.00;99.90;;;;;;5076551;28;19908;-78
2021/08/05 10:03:31;;;;;;;;;;;22.00;99.90;;;;;;5070499;28;19990;-78
2021/08/05 10:05:58;;;;;;;;;;;22.10;99.90;;;;;;5059169;28;20295;-82
2021/08/05 10:08:40;;;;;;;;;;;22.20;99.90;;;;;;5072112;28;19909;-79
2021/08/05 10:11:07;;;;;;;;;;;22.40;99.90;;;;;;5087897;28;19926;-87
2021/08/05 10:13:36;;;;;;;;;;;22.60;99.90;;;;;;5072104;28;19920;-77
2021/08/05 10:16:02;;;;;;;;;;;22.80;99.90;;;;;;5073705;28;19970;-78
2021/08/05 10:18:29;;;;;;;;;;;22.90;99.90;;;;;;5073918;28;19920;-78
2021/08/05 10:20:58;;;;;;;;;;;22.90;99.90;;;;;;5074356;28;19962;-80
2021/08/05 10:23:25;;;;;;;;;;;22.90;99.90;;;;;;5072891;28;19912;-78
2021/08/05 10:25:52;;;;;;;;;;;22.70;99.90;;;;;;5076250;28;19908;-79
2021/08/05 10:28:18;;;;;;;;;;;22.50;99.90;;;;;;5055572;28;19913;-77
2021/08/05 10:30:44;;;;;;;;;;;22.30;99.90;;;;;;5064808;28;19908;-84
2021/08/05 10:33:10;;;;;;;;;;;22.10;99.90;;;;;;5071162;28;20254;-79
2021/08/05 10:35:36;;;;;;;;;;;21.90;99.90;;;;;;5063663;28;19965;-79
2021/08/05 10:38:03;;;;;;;;;;;21.80;99.90;;;;;;5072875;28;19939;-81
2021/08/05 10:40:28;;;;;;;;;;;21.70;99.90;;;;;;5075457;28;19965;-84
2021/08/05 10:42:55;;;;;;;;;;;21.60;99.90;;;;;;5074972;28;20011;-77
2021/08/05 10:45:21;;;;;;;;;;;21.60;99.90;;;;;;5075137;28;19995;-78
2021/08/05 10:47:48;;;;;;;;;;;21.40;99.90;;;;;;5066192;28;19993;-79
2021/08/05 10:50:15;;;;;;;;;;;21.40;99.90;;;;;;5073794;28;20323;-78
2021/08/05 10:52:42;;;;;;;;;;;21.20;99.90;;;;;;5066816;28;19915;-79
2021/08/05 10:55:26;;;;;;;;;;;21.20;99.90;;;;;;5063284;28;20015;-78
2021/08/05 10:58:09;;;;;;;;;;;21.20;99.90;;;;;;5074152;28;20149;-80
2021/08/05 11:00:50;;;;;;;;;;;21.10;99.90;;;;;;5073364;28;20003;-79
2021/08/05 11:03:31;;;;;;;;;;;21.10;99.90;;;;;;5065619;28;19960;-77
2021/08/05 11:05:57;;;;;;;;;;;21.00;99.90;;;;;;5062256;28;19944;-80
2021/08/05 11:08:23;;;;;;;;;;;21.00;99.90;;;;;;5075072;28;20006;-78
2021/08/05 11:10:49;;;;;;;;;;;20.90;99.90;;;;;;5073064;28;19909;-78
2021/08/05 11:13:16;;;;;;;;;;;20.90;99.90;;;;;;5059814;28;19912;-78
2021/08/05 11:15:41;;;;;;;;;;;20.90;99.90;;;;;;5066073;28;19920;-79
2021/08/05 11:20:33;;;;;;;;;;;20.80;99.90;;;;;;5065567;28;19923;-79
2021/08/05 11:22:59;;;;;;;;;;;20.90;99.90;;;;;;5067377;28;19920;-80
2021/08/05 11:25:24;;;;;;;;;;;20.80;99.90;;;;;;5065508;28;19917;-79
2021/08/05 11:28:09;;;;;;;;;;;20.90;99.90;;;;;;5064203;28;19927;-79
2021/08/05 11:30:44;;;;;;;;;;;20.80;99.90;;;;;;5064612;28;19963;-82
2021/08/05 11:33:28;;;;;;;;;;;20.80;99.90;;;;;;5065674;28;19912;-79
2021/08/05 11:36:23;;;;;;;;;;;20.80;99.90;;;;;;5064222;28;19967;-81
2021/08/05 11:39:08;;;;;;;;;;;20.90;99.90;;;;;;5068539;28;19977;-79
2021/08/05 11:41:53;;;;;;;;;;;21.00;99.90;;;;;;5067353;28;20007;-84
2021/08/05 11:44:21;;;;;;;;;;;21.00;99.90;;;;;;5062736;28;19923;-80
2021/08/05 11:47:08;;;;;;;;;;;20.90;99.90;;;;;;5066155;28;19951;-78
2021/08/05 11:49:38;;;;;;;;;;;20.70;99.90;;;;;;5067705;28;20030;-79
2021/08/05 11:52:07;;;;;;;;;;;20.60;99.90;;;;;;5062970;28;19912;-79
2021/08/05 11:54:33;;;;;;;;;;;20.50;99.90;;;;;;5062198;28;20011;-82
2021/08/05 11:56:59;;;;;;;;;;;20.50;99.90;;;;;;5065338;28;20054;-79
2021/08/05 11:59:31;;;;;;;;;;;20.30;99.90;;;;;;5065617;28;19917;-80
2021/08/05 12:02:08;;;;;;;;;;;20.30;99.90;;;;;;5065670;28;19916;-79
2021/08/05 12:04:33;;;;;;;;;;;20.30;99.90;;;;;;5064110;28;20007;-79
2021/08/05 12:07:28;;;;;;;;;;;20.50;99.90;;;;;;5066478;28;19995;-77
2021/08/05 12:10:03;;;;;;;;;;;20.60;99.90;;;;;;5056545;28;20023;-79
2021/08/05 12:12:34;;;;;;;;;;;20.90;99.90;;;;;;5064375;28;19913;-79
2021/08/05 12:15:00;;;;;;;;;;;21.10;99.90;;;;;;5067090;28;19921;-79
2021/08/05 12:17:33;;;;;;;;;;;21.30;99.90;;;;;;5074870;28;19913;-78
2021/08/05 12:19:59;;;;;;;;;;;21.50;99.90;;;;;;5065931;28;19920;-90
2021/08/05 12:22:28;;;;;;;;;;;21.60;99.90;;;;;;5067820;28;19935;-79
2021/08/05 12:24:55;;;;;;;;;;;21.70;99.90;;;;;;5067976;28;20035;-78
2021/08/05 12:27:21;;;;;;;;;;;21.70;99.90;;;;;;5069247;28;20027;-85
2021/08/05 12:30:16;;;;;;;;;;;21.70;99.90;;;;;;5062362;28;19944;-78
2021/08/05 12:33:02;;;;;;;;;;;21.50;99.90;;;;;;5056693;28;19909;-78
2021/08/05 12:35:27;;;;;;;;;;;21.60;99.90;;;;;;5071956;28;19949;-79
2021/08/05 12:38:07;;;;;;;;;;;21.70;99.90;;;;;;5066428;28;19920;-78
2021/08/05 12:40:33;;;;;;;;;;;21.80;99.90;;;;;;5065808;28;19943;-80
2021/08/05 12:43:02;;;;;;;;;;;21.80;99.90;;;;;;5065199;28;20011;-79
2021/08/05 12:45:27;;;;;;;;;;;21.80;99.90;;;;;;5062983;28;20327;-79
2021/08/05 12:47:53;;;;;;;;;;;21.80;99.90;;;;;;5073755;28;19958;-79
2021/08/05 12:50:19;;;;;;;;;;;21.80;99.90;;;;;;5067737;28;19927;-78
2021/08/05 12:52:44;;;;;;;;;;;21.80;99.90;;;;;;5070900;28;19927;-85
2021/08/05 12:55:10;;;;;;;;;;;21.80;99.90;;;;;;5066688;28;20308;-81
2021/08/05 12:57:37;;;;;;;;;;;21.90;99.90;;;;;;5070441;28;19916;-83
2021/08/05 13:00:03;;;;;;;;;;;22.00;99.90;;;;;;5066560;28;19921;-82
2021/08/05 13:02:29;;;;;;;;;;;22.10;99.90;;;;;;5069414;28;19958;-81
2021/08/05 13:05:07;;;;;;;;;;;22.20;99.90;;;;;;5066130;28;20335;-85
2021/08/05 13:07:41;;;;;;;;;;;22.20;99.90;;;;;;5068676;28;19917;-79
2021/08/05 13:10:06;;;;;;;;;;;22.30;99.90;;;;;;5066623;28;19939;-78
2021/08/05 13:12:33;;;;;;;;;;;22.30;99.90;;;;;;5067629;28;19917;-78
2021/08/05 13:15:18;;;;;;;;;;;22.20;99.90;;;;;;5066005;28;19939;-79
2021/08/05 13:17:44;;;;;;;;;;;22.10;99.90;;;;;;5082208;28;19935;-78
2021/08/05 13:20:10;;;;;;;;;;;22.10;99.90;;;;;;5067956;28;20315;-79
2021/08/05 13:22:36;;;;;;;;;;;22.00;99.90;;;;;;5069422;28;20292;-84
2021/08/05 13:25:02;;;;;;;;;;;22.00;99.90;;;;;;5066400;28;19917;-84
2021/08/05 13:27:32;;;;;;;;;;;21.90;99.90;;;;;;5068317;28;20019;-80
2021/08/05 13:29:58;;;;;;;;;;;21.90;99.90;;;;;;5059488;28;19916;-78
2021/08/05 13:32:26;;;;;;;;;;;21.80;99.90;;;;;;5065924;28;20081;-79
2021/08/05 13:35:01;;;;;;;;;;;21.80;99.90;;;;;;5066727;28;19924;-83
2021/08/05 13:37:28;;;;;;;;;;;21.90;99.90;;;;;;5066032;28;19921;-79
2021/08/05 13:39:54;;;;;;;;;;;21.90;99.90;;;;;;5068747;28;19921;-81
2021/08/05 13:42:21;;;;;;;;;;;22.00;99.90;;;;;;5074939;28;20042;-83
2021/08/05 13:44:46;;;;;;;;;;;21.90;99.90;;;;;;5069833;28;19916;-79
2021/08/05 13:47:13;;;;;;;;;;;21.90;99.90;;;;;;5066099;28;19912;-80
2021/08/05 13:49:39;;;;;;;;;;;21.90;99.90;;;;;;5077125;28;20214;-79
2021/08/05 13:52:06;;;;;;;;;;;21.90;99.90;;;;;;5066861;28;19909;-80
2021/08/05 13:54:32;;;;;;;;;;;21.90;99.90;;;;;;5066629;28;19999;-85
2021/08/05 13:56:59;;;;;;;;;;;21.90;99.90;;;;;;5073503;28;20542;-79
2021/08/05 13:59:25;;;;;;;;;;;21.80;99.90;;;;;;5076204;28;19917;-81
2021/08/05 14:01:51;;;;;;;;;;;21.80;99.90;;;;;;5069226;28;19913;-81
2021/08/05 14:04:16;;;;;;;;;;;21.90;99.90;;;;;;5075102;28;20007;-79
2021/08/05 14:06:42;;;;;;;;;;;21.90;99.90;;;;;;5076972;28;19940;-86
2021/08/05 14:09:07;;;;;;;;;;;22.00;99.90;;;;;;5073367;28;19913;-79
2021/08/05 14:11:33;;;;;;;;;;;22.10;99.90;;;;;;5071308;28;19919;-80
2021/08/05 14:13:59;;;;;;;;;;;22.20;99.90;;;;;;5064932;28;19912;-78
2021/08/05 14:16:24;;;;;;;;;;;22.30;99.90;;;;;;5066013;28;19916;-84
2021/08/05 14:18:50;;;;;;;;;;;22.30;99.90;;;;;;5060867;28;19913;-78